Time;durP1;ratioP1;P1;durP2;ratioP2;P2;SDS_P1;SDS_P2;PMS_P1;PMS_P2;Temp;Humidity;BMP_temperature;BMP_pressure;BME280_temperature;BME280_humidity;BME280_pressure;Samples;Min_cycle;Max_cycle;Signal;HPM_P1;HPM_P2
2023/12/17 00:01:03;;;;;;;;;;;;;;;9.60;100.00;103721.22;5112587;28;19916;-44
2023/12/17 00:03:28;;;;;;;;;;;;;;;9.59;100.00;103714.13;5112042;28;19969;-43
2023/12/17 00:05:54;;;;;;;;;;;;;;;9.61;100.00;103714.88;5112761;28;19915;-44
2023/12/17 00:08:20;;;;;;;;;;;;;;;9.62;100.00;103708.53;5112651;28;19916;-44
2023/12/17 00:10:48;;;;;;;;;;;;;;;9.62;100.00;103700.47;5112414;28;20004;-44
2023/12/17 00:13:14;;;;;;;;;;;;;;;9.62;100.00;103697.78;5112583;28;19920;-44
2023/12/17 00:15:39;;;;;;;;;;;;;;;9.61;100.00;103691.56;5112437;28;19912;-44
2023/12/17 00:18:05;;;;;;;;;;;;;;;9.61;100.00;103679.91;5111314;28;19916;-43
2023/12/17 00:20:30;;;;;;;;;;;;;;;9.64;100.00;103687.78;5112602;28;19966;-44
2023/12/17 00:22:56;;;;;;;;;;;;;;;9.61;100.00;103683.50;5112391;28;19959;-44
2023/12/17 00:25:21;;;;;;;;;;;;;;;9.65;100.00;103684.13;5112443;28;19951;-43
2023/12/17 00:27:46;;;;;;;;;;;;;;;9.64;100.00;103682.41;5112324;28;19916;-44
2023/12/17 00:30:12;;;;;;;;;;;;;;;9.66;100.00;103683.16;5112331;28;19984;-44
2023/12/17 00:32:37;;;;;;;;;;;;;;;9.63;100.00;103692.28;5112377;28;19916;-43
2023/12/17 00:35:02;;;;;;;;;;;;;;;9.67;100.00;103687.56;5112213;28;19984;-43
2023/12/17 00:37:28;;;;;;;;;;;;;;;9.65;100.00;103686.81;5111171;28;19947;-45
2023/12/17 00:39:53;;;;;;;;;;;;;;;9.68;100.00;103683.91;5112419;28;19922;-44
2023/12/17 00:42:18;;;;;;;;;;;;;;;9.67;100.00;103687.56;5112432;28;19981;-44
2023/12/17 00:44:43;;;;;;;;;;;;;;;9.64;100.00;103683.28;5112197;28;19916;-44
2023/12/17 00:47:09;;;;;;;;;;;;;;;9.64;100.00;103679.72;5114587;28;20111;-43
2023/12/17 00:49:34;;;;;;;;;;;;;;;9.64;100.00;103677.03;5116357;28;19963;-43
2023/12/17 00:51:59;;;;;;;;;;;;;;;9.67;100.00;103676.81;5116327;28;20011;-44
2023/12/17 00:54:24;;;;;;;;;;;;;;;9.66;100.00;103664.31;5116002;28;19916;-43
2023/12/17 00:56:50;;;;;;;;;;;;;;;9.63;100.00;103660.00;5116613;28;19923;-43
2023/12/17 00:59:15;;;;;;;;;;;;;;;9.62;100.00;103663.69;5116607;28;19961;-46
2023/12/17 01:01:40;;;;;;;;;;;;;;;9.64;100.00;103664.44;5116057;28;19920;-44
2023/12/17 01:04:05;;;;;;;;;;;;;;;9.63;100.00;103664.53;5116138;28;20314;-43
2023/12/17 01:06:30;;;;;;;;;;;;;;;9.64;100.00;103660.91;5116101;28;19916;-46
2023/12/17 01:08:56;;;;;;;;;;;;;;;9.65;100.00;103651.84;5116204;28;19916;-43
2023/12/17 01:11:21;;;;;;;;;;;;;;;9.65;100.00;103641.09;5115841;28;19972;-43
2023/12/17 01:13:46;;;;;;;;;;;;;;;9.65;100.00;103641.09;5116112;28;20003;-43
2023/12/17 01:16:13;;;;;;;;;;;;;;;9.65;100.00;103635.72;5115229;28;20213;-43
2023/12/17 01:18:38;;;;;;;;;;;;;;;9.66;100.00;103642.81;5116256;28;20335;-44
2023/12/17 01:21:05;;;;;;;;;;;;;;;9.67;100.00;103637.34;5115629;28;20358;-45
2023/12/17 01:23:30;;;;;;;;;;;;;;;9.69;100.00;103631.88;5114725;28;20014;-43
2023/12/17 01:25:55;;;;;;;;;;;;;;;9.66;100.00;103632.94;5115743;28;19958;-43
2023/12/17 01:28:20;;;;;;;;;;;;;;;9.68;100.00;103630.97;5116016;28;19916;-43
2023/12/17 01:30:45;;;;;;;;;;;;;;;9.66;100.00;103621.28;5115974;28;19922;-45
2023/12/17 01:33:11;;;;;;;;;;;;;;;9.69;100.00;103623.78;5115575;28;20010;-43
2023/12/17 01:35:36;;;;;;;;;;;;;;;9.68;100.00;103622.06;5115697;28;19995;-43
2023/12/17 01:38:01;;;;;;;;;;;;;;;9.68;100.00;103611.31;5114064;28;19951;-43
2023/12/17 01:40:26;;;;;;;;;;;;;;;9.67;100.00;103606.91;5115198;28;20006;-43
2023/12/17 01:42:52;;;;;;;;;;;;;;;9.70;100.00;103606.69;5115369;28;19989;-43
2023/12/17 01:45:17;;;;;;;;;;;;;;;9.72;100.00;103610.13;5114993;28;19916;-43
2023/12/17 01:47:43;;;;;;;;;;;;;;;9.72;100.00;103615.50;5115334;28;20340;-43
2023/12/17 01:50:08;;;;;;;;;;;;;;;9.70;100.00;103620.13;5115058;28;20124;-43
2023/12/17 01:52:33;;;;;;;;;;;;;;;9.71;100.00;103612.91;5114211;28;19916;-43
2023/12/17 01:54:59;;;;;;;;;;;;;;;9.69;100.00;103607.66;5115313;28;19927;-44
2023/12/17 01:57:24;;;;;;;;;;;;;;;9.67;100.00;103609.59;5113632;28;19916;-44
2023/12/17 01:59:50;;;;;;;;;;;;;;;9.67;100.00;103617.66;5114463;28;19922;-43
2023/12/17 02:02:15;;;;;;;;;;;;;;;9.68;100.00;103619.38;5114952;28;19915;-43
2023/12/17 02:04:41;;;;;;;;;;;;;;;9.72;100.00;103618.19;5114191;28;19963;-44
2023/12/17 02:07:06;;;;;;;;;;;;;;;9.74;100.00;103621.66;5115517;28;19967;-43
2023/12/17 02:09:31;;;;;;;;;;;;;;;9.75;100.00;103623.34;5114970;28;19920;-44
2023/12/17 02:11:56;;;;;;;;;;;;;;;9.71;100.00;103635.28;5114597;28;19961;-44
2023/12/17 02:14:21;;;;;;;;;;;;;;;9.70;100.00;103647.03;5114709;28;19991;-43
2023/12/17 02:16:47;;;;;;;;;;;;;;;9.66;100.00;103641.00;5114351;28;19923;-43
2023/12/17 02:19:12;;;;;;;;;;;;;;;9.64;100.00;103650.16;5114890;28;19916;-44
2023/12/17 02:21:37;;;;;;;;;;;;;;;9.62;100.00;103649.38;5114620;28;19923;-43
2023/12/17 02:24:02;;;;;;;;;;;;;;;9.61;100.00;103651.22;5114977;28;19927;-43
2023/12/17 02:26:27;;;;;;;;;;;;;;;9.61;100.00;103650.34;5114649;28;19915;-41
2023/12/17 02:28:53;;;;;;;;;;;;;;;9.58;100.00;103658.63;5115161;28;19912;-42
2023/12/17 02:31:18;;;;;;;;;;;;;;;9.53;100.00;103664.34;5115070;28;19916;-42
2023/12/17 02:33:43;;;;;;;;;;;;;;;9.51;100.00;103665.41;5115091;28;19919;-44
2023/12/17 02:36:08;;;;;;;;;;;;;;;9.49;100.00;103664.66;5114641;28;20270;-46
2023/12/17 02:38:34;;;;;;;;;;;;;;;9.49;100.00;103654.75;5114209;28;19915;-43
2023/12/17 02:40:59;;;;;;;;;;;;;;;9.44;100.00;103655.06;5113812;28;19927;-43
2023/12/17 02:43:24;;;;;;;;;;;;;;;9.44;100.00;103649.69;5114371;28;20281;-43
2023/12/17 02:45:49;;;;;;;;;;;;;;;9.43;100.00;103642.59;5114044;28;19919;-43
2023/12/17 02:48:14;;;;;;;;;;;;;;;9.40;100.00;103650.88;5114523;28;20019;-44
2023/12/17 02:50:40;;;;;;;;;;;;;;;9.43;100.00;103650.66;5114089;28;20029;-43
2023/12/17 02:53:05;;;;;;;;;;;;;;;9.41;100.00;103655.28;5114339;28;20357;-43
2023/12/17 02:55:30;;;;;;;;;;;;;;;9.41;100.00;103644.53;5113963;28;19916;-43
2023/12/17 02:57:55;;;;;;;;;;;;;;;9.41;100.00;103646.34;5114085;28;19968;-48
2023/12/17 03:00:21;;;;;;;;;;;;;;;9.40;100.00;103645.50;5114076;28;20293;-44
2023/12/17 03:02:46;;;;;;;;;;;;;;;9.42;100.00;103646.22;5113897;28;19922;-43
2023/12/17 03:05:11;;;;;;;;;;;;;;;9.42;100.00;103640.84;5113977;28;19959;-43
2023/12/17 03:07:36;;;;;;;;;;;;;;;9.39;100.00;103649.13;5113885;28;19923;-43
2023/12/17 03:10:02;;;;;;;;;;;;;;;9.41;100.00;103643.66;5113099;28;19919;-43
2023/12/17 03:12:27;;;;;;;;;;;;;;;9.36;100.00;103643.97;5112343;28;20397;-44
2023/12/17 03:14:52;;;;;;;;;;;;;;;9.37;100.00;103626.91;5113918;28;19920;-43
2023/12/17 03:17:17;;;;;;;;;;;;;;;9.34;100.00;103628.91;5113615;28;20014;-44
2023/12/17 03:19:43;;;;;;;;;;;;;;;9.33;100.00;103619.16;5114102;28;19959;-43
2023/12/17 03:22:08;;;;;;;;;;;;;;;9.32;100.00;103626.34;5116813;28;19937;-43
2023/12/17 03:24:33;;;;;;;;;;;;;;;9.32;100.00;103622.78;5116646;28;19922;-43
2023/12/17 03:26:58;;;;;;;;;;;;;;;9.31;100.00;103627.31;5115885;28;19998;-43
2023/12/17 03:29:24;;;;;;;;;;;;;;;9.30;100.00;103625.59;5113761;28;19961;-42
2023/12/17 03:31:49;;;;;;;;;;;;;;;9.30;100.00;103628.28;5113647;28;19916;-43
2023/12/17 03:34:14;;;;;;;;;;;;;;;9.32;100.00;103634.41;5113601;28;19941;-42
2023/12/17 03:36:39;;;;;;;;;;;;;;;9.29;100.00;103637.28;5113297;28;20010;-43
2023/12/17 03:39:05;;;;;;;;;;;;;;;9.29;100.00;103623.84;5113758;28;19954;-43
2023/12/17 03:41:30;;;;;;;;;;;;;;;9.25;100.00;103619.66;5111893;28;20377;-44
2023/12/17 03:43:56;;;;;;;;;;;;;;;9.26;100.00;103624.06;5112629;28;19920;-43
2023/12/17 03:46:23;;;;;;;;;;;;;;;9.27;100.00;103617.75;5112841;28;19958;-43
2023/12/17 03:48:48;;;;;;;;;;;;;;;9.26;100.00;103624.06;5111650;28;19923;-43
2023/12/17 03:51:13;;;;;;;;;;;;;;;9.25;100.00;103616.97;5113231;28;20278;-44
2023/12/17 03:53:39;;;;;;;;;;;;;;;9.22;100.00;103618.06;5113026;28;20002;-43
2023/12/17 03:56:08;;;;;;;;;;;;;;;9.21;100.00;103604.72;5112993;28;19951;-43
2023/12/17 03:58:33;;;;;;;;;;;;;;;9.22;100.00;103607.31;5113113;28;20373;-41
2023/12/17 04:00:59;;;;;;;;;;;;;;;9.20;100.00;103603.84;5112823;28;19923;-42
2023/12/17 04:03:24;;;;;;;;;;;;;;;9.16;100.00;103599.66;5113057;28;19916;-44
2023/12/17 04:05:49;;;;;;;;;;;;;;;9.12;100.00;103603.53;5113202;28;19923;-44
2023/12/17 04:08:14;;;;;;;;;;;;;;;9.13;100.00;103585.56;5111719;28;20377;-44
2023/12/17 04:10:39;;;;;;;;;;;;;;;9.14;100.00;103588.16;5113206;28;19980;-44
2023/12/17 04:13:05;;;;;;;;;;;;;;;9.15;100.00;103589.03;5112770;28;19919;-44
2023/12/17 04:15:30;;;;;;;;;;;;;;;9.13;100.00;103589.09;5112834;28;19992;-43
2023/12/17 04:17:55;;;;;;;;;;;;;;;9.12;100.00;103589.22;5112759;28;20390;-43
2023/12/17 04:20:20;;;;;;;;;;;;;;;9.05;100.00;103599.53;5114029;28;20314;-45
2023/12/17 04:22:46;;;;;;;;;;;;;;;9.05;100.00;103590.59;5116961;28;19922;-45
2023/12/17 04:25:12;;;;;;;;;;;;;;;9.01;100.00;103598.88;5117273;28;19922;-43
2023/12/17 04:27:37;;;;;;;;;;;;;;;8.99;100.00;103598.13;5117017;28;19920;-44
2023/12/17 04:30:02;;;;;;;;;;;;;;;9.00;100.00;103593.59;5117063;28;19915;-44
2023/12/17 04:32:27;;;;;;;;;;;;;;;9.01;100.00;103611.47;5115797;28;19920;-45
2023/12/17 04:34:55;;;;;;;;;;;;;;;9.00;100.00;103604.34;5116885;28;19957;-44
2023/12/17 04:37:21;;;;;;;;;;;;;;;9.01;100.00;103592.66;5116994;28;19916;-42
2023/12/17 04:39:46;;;;;;;;;;;;;;;9.00;100.00;103602.53;5116711;27;20340;-42
2023/12/17 04:42:11;;;;;;;;;;;;;;;8.96;100.00;103601.00;5116629;28;20385;-44
2023/12/17 04:44:37;;;;;;;;;;;;;;;8.95;100.00;103590.38;5116416;28;19959;-43
2023/12/17 04:47:02;;;;;;;;;;;;;;;8.93;100.00;103600.38;5116551;28;19938;-44
2023/12/17 04:49:27;;;;;;;;;;;;;;;8.94;100.00;103602.94;5115657;28;19916;-44
2023/12/17 04:51:52;;;;;;;;;;;;;;;8.94;100.00;103602.94;5116849;28;20266;-44
2023/12/17 04:54:18;;;;;;;;;;;;;;;8.90;100.00;103601.44;5116368;28;19916;-44
2023/12/17 04:56:43;;;;;;;;;;;;;;;8.90;100.00;103593.38;5116383;28;20068;-44
2023/12/17 04:59:08;;;;;;;;;;;;;;;8.89;100.00;103588.97;5116241;28;19916;-43
2023/12/17 05:01:33;;;;;;;;;;;;;;;8.90;100.00;103596.06;5116351;28;20369;-44
2023/12/17 05:03:58;;;;;;;;;;;;;;;8.90;100.00;103574.59;5116097;28;19984;-43
2023/12/17 05:06:24;;;;;;;;;;;;;;;8.93;100.00;103579.75;5116290;28;20379;-43
2023/12/17 05:08:49;;;;;;;;;;;;;;;8.93;100.00;103577.06;5116101;28;20338;-44
2023/12/17 05:11:14;;;;;;;;;;;;;;;8.97;100.00;103570.50;5116117;28;19920;-41
2023/12/17 05:13:39;;;;;;;;;;;;;;;8.98;100.00;103576.75;5115999;28;20421;-43
2023/12/17 05:16:05;;;;;;;;;;;;;;;8.99;100.00;103576.63;5116192;28;20453;-44
2023/12/17 05:18:30;;;;;;;;;;;;;;;9.00;100.00;103570.31;5115699;27;20389;-44
2023/12/17 05:20:55;;;;;;;;;;;;;;;9.04;100.00;103572.78;5116210;28;19916;-43
2023/12/17 05:23:20;;;;;;;;;;;;;;;9.04;100.00;103570.09;5115936;28;19962;-43
2023/12/17 05:25:46;;;;;;;;;;;;;;;9.01;100.00;103571.16;5115796;28;19923;-44
2023/12/17 05:28:11;;;;;;;;;;;;;;;9.02;100.00;103568.34;5115691;28;19969;-46
2023/12/17 05:30:37;;;;;;;;;;;;;;;9.04;100.00;103572.78;5115694;28;19916;-44
2023/12/17 05:33:02;;;;;;;;;;;;;;;9.02;100.00;103573.72;5115434;28;19923;-44
2023/12/17 05:35:27;;;;;;;;;;;;;;;9.08;100.00;103567.06;5104829;28;19922;-44
2023/12/17 05:37:53;;;;;;;;;;;;;;;9.09;100.00;103570.66;5094470;28;20018;-43
2023/12/17 05:40:18;;;;;;;;;;;;;;;9.08;100.00;103556.31;5094895;28;20003;-44
2023/12/17 05:42:43;;;;;;;;;;;;;;;9.08;100.00;103561.69;5095635;28;20385;-43
2023/12/17 05:45:09;;;;;;;;;;;;;;;9.07;100.00;103557.31;5095207;28;19923;-43
2023/12/17 05:47:34;;;;;;;;;;;;;;;9.10;100.00;103567.84;5095394;28;20010;-43
2023/12/17 05:50:01;;;;;;;;;;;;;;;9.11;100.00;103582.13;5095458;28;20430;-44
2023/12/17 05:52:26;;;;;;;;;;;;;;;9.11;100.00;103572.25;5095074;28;20409;-43
2023/12/17 05:54:52;;;;;;;;;;;;;;;9.08;100.00;103568.91;5094885;28;19963;-43
2023/12/17 05:57:17;;;;;;;;;;;;;;;9.10;100.00;103569.66;5095227;28;19916;-44
2023/12/17 05:59:42;;;;;;;;;;;;;;;9.09;100.00;103573.31;5095152;28;19923;-44
2023/12/17 06:02:07;;;;;;;;;;;;;;;9.06;100.00;103578.88;5095532;28;19916;-42
2023/12/17 06:04:33;;;;;;;;;;;;;;;9.05;100.00;103587.91;5095459;28;19923;-44
2023/12/17 06:06:58;;;;;;;;;;;;;;;9.04;100.00;103586.22;5095286;28;19959;-43
2023/12/17 06:09:24;;;;;;;;;;;;;;;9.05;100.00;103590.59;5094960;28;19922;-43
2023/12/17 06:11:49;;;;;;;;;;;;;;;9.04;100.00;103578.16;5094918;28;19923;-43
2023/12/17 06:14:15;;;;;;;;;;;;;;;9.01;100.00;103577.38;5094606;28;19917;-44
2023/12/17 06:16:41;;;;;;;;;;;;;;;8.99;100.00;103573.94;5095143;28;20263;-43
2023/12/17 06:19:07;;;;;;;;;;;;;;;8.97;100.00;103583.06;5093583;28;19947;-43
2023/12/17 06:21:32;;;;;;;;;;;;;;;8.96;100.00;103576.84;5094679;28;20000;-43
2023/12/17 06:23:57;;;;;;;;;;;;;;;8.97;100.00;103564.25;5094523;28;19916;-44
2023/12/17 06:26:26;;;;;;;;;;;;;;;8.95;100.00;103571.56;5094750;28;19916;-43
2023/12/17 06:28:51;;;;;;;;;;;;;;;8.91;100.00;103568.25;5094301;28;19998;-43
2023/12/17 06:31:16;;;;;;;;;;;;;;;8.92;100.00;103566.41;5094299;28;19970;-43
2023/12/17 06:33:42;;;;;;;;;;;;;;;8.92;100.00;103561.03;5094501;28;20342;-43
2023/12/17 06:36:07;;;;;;;;;;;;;;;8.90;100.00;103573.69;5094395;28;19955;-43
2023/12/17 06:38:33;;;;;;;;;;;;;;;8.86;100.00;103565.00;5094458;28;20328;-43
2023/12/17 06:40:58;;;;;;;;;;;;;;;8.83;100.00;103567.91;5095268;28;20358;-44
2023/12/17 06:43:23;;;;;;;;;;;;;;;8.77;100.00;103562.94;5094144;28;19997;-43
2023/12/17 06:45:48;;;;;;;;;;;;;;;8.78;100.00;103564.66;5094428;28;19916;-43
2023/12/17 06:48:13;;;;;;;;;;;;;;;8.77;100.00;103554.91;5094298;28;19916;-43
2023/12/17 06:50:39;;;;;;;;;;;;;;;8.75;100.00;103578.31;5094922;28;19916;-44
2023/12/17 06:53:04;;;;;;;;;;;;;;;8.73;100.00;103574.84;5094585;28;19917;-43
2023/12/17 06:55:29;;;;;;;;;;;;;;;8.74;100.00;103572.06;5094336;28;20322;-43
2023/12/17 06:57:54;;;;;;;;;;;;;;;8.75;100.00;103575.63;5094312;28;19969;-43
2023/12/17 07:00:20;;;;;;;;;;;;;;;8.71;100.00;103566.88;5094265;28;19920;-44
2023/12/17 07:02:45;;;;;;;;;;;;;;;8.72;100.00;103562.41;5093698;28;19962;-43
2023/12/17 07:05:11;;;;;;;;;;;;;;;8.72;100.00;103565.09;5093783;28;19968;-43
2023/12/17 07:07:36;;;;;;;;;;;;;;;8.75;100.00;103567.56;5094338;28;19916;-43
2023/12/17 07:10:01;;;;;;;;;;;;;;;8.72;100.00;103563.25;5094681;28;19966;-44
2023/12/17 07:12:26;;;;;;;;;;;;;;;8.71;100.00;103558.81;5093898;28;19985;-44
2023/12/17 07:14:52;;;;;;;;;;;;;;;8.66;100.00;103554.72;5094159;28;19912;-42
2023/12/17 07:17:17;;;;;;;;;;;;;;;8.67;100.00;103565.38;5094385;28;19924;-43
2023/12/17 07:19:42;;;;;;;;;;;;;;;8.68;100.00;103555.50;5093707;28;19913;-44
2023/12/17 07:22:07;;;;;;;;;;;;;;;8.66;100.00;103562.78;5093624;28;19923;-43
2023/12/17 07:24:33;;;;;;;;;;;;;;;8.65;100.00;103542.28;5093889;28;19955;-42
2023/12/17 07:26:58;;;;;;;;;;;;;;;8.62;100.00;103570.19;5093391;28;19924;-43
2023/12/17 07:29:23;;;;;;;;;;;;;;;8.61;100.00;103556.88;5093523;28;19916;-43
2023/12/17 07:31:48;;;;;;;;;;;;;;;8.60;100.00;103563.22;5093526;28;19935;-43
2023/12/17 07:34:14;;;;;;;;;;;;;;;8.61;100.00;103568.50;5093157;28;19916;-43
2023/12/17 07:36:39;;;;;;;;;;;;;;;8.62;100.00;103563.97;5092954;28;19966;-44
2023/12/17 07:39:05;;;;;;;;;;;;;;;8.66;100.00;103562.78;5093598;28;19916;-44
2023/12/17 07:41:30;;;;;;;;;;;;;;;8.63;100.00;103565.69;5125643;27;20049;-43
2023/12/17 07:43:55;;;;;;;;;;;;;;;8.63;100.00;103566.53;5093168;28;19923;-44
2023/12/17 07:46:21;;;;;;;;;;;;;;;8.60;100.00;103555.16;5092069;28;19916;-43
2023/12/17 07:48:46;;;;;;;;;;;;;;;8.57;100.00;103564.28;5095707;28;19973;-43
2023/12/17 07:51:11;;;;;;;;;;;;;;;8.50;100.00;103568.31;5095874;28;19923;-43
2023/12/17 07:53:36;;;;;;;;;;;;;;;8.51;100.00;103578.09;5094553;28;19916;-44
2023/12/17 07:56:01;;;;;;;;;;;;;;;8.52;100.00;103578.00;5092668;28;19916;-43
2023/12/17 07:58:28;;;;;;;;;;;;;;;8.54;100.00;103586.81;5092643;28;20332;-43
2023/12/17 08:00:53;;;;;;;;;;;;;;;8.55;100.00;103579.63;5091308;28;19916;-43
2023/12/17 08:03:22;;;;;;;;;;;;;;;8.53;100.00;103593.16;5092769;28;19939;-43
2023/12/17 08:05:47;;;;;;;;;;;;;;;8.50;100.00;103595.16;5092559;28;19916;-46
2023/12/17 08:08:12;;;;;;;;;;;;;;;8.48;100.00;103584.53;5092459;28;19951;-44
2023/12/17 08:10:38;;;;;;;;;;;;;;;8.44;100.00;103577.63;5092411;28;19920;-43
2023/12/17 08:13:03;;;;;;;;;;;;;;;8.39;100.00;103587.81;5092194;28;20290;-43
2023/12/17 08:15:28;;;;;;;;;;;;;;;8.34;100.00;103593.44;5092432;28;20295;-43
2023/12/17 08:17:53;;;;;;;;;;;;;;;8.36;100.00;103602.25;5092243;28;20397;-44
2023/12/17 08:20:19;;;;;;;;;;;;;;;8.32;100.00;103595.38;5092506;28;20374;-44
2023/12/17 08:22:44;;;;;;;;;;;;;;;8.23;100.00;103595.09;5092195;28;20377;-43
2023/12/17 08:25:09;;;;;;;;;;;;;;;8.26;100.00;103594.91;5092221;28;19938;-44
2023/12/17 08:27:34;;;;;;;;;;;;;;;8.26;100.00;103600.28;5091922;28;19970;-43
2023/12/17 08:30:00;;;;;;;;;;;;;;;8.27;100.00;103592.13;5092497;28;19920;-44
2023/12/17 08:32:31;;;;;;;;;;;;;;;8.32;100.00;103583.75;5125814;28;19924;-42
2023/12/17 08:34:57;;;;;;;;;;;;;;;8.32;100.00;103587.34;5092788;28;19916;-44
2023/12/17 08:37:24;;;;;;;;;;;;;;;8.32;100.00;103589.13;5092115;28;19916;-43
2023/12/17 08:39:49;;;;;;;;;;;;;;;8.27;100.00;103581.41;5091474;28;20393;-43
2023/12/17 08:42:14;;;;;;;;;;;;;;;8.27;100.00;103591.28;5091650;28;19955;-43
2023/12/17 08:44:39;;;;;;;;;;;;;;;8.26;100.00;103616.38;5092121;28;19916;-44
2023/12/17 08:47:04;;;;;;;;;;;;;;;8.25;100.00;103588.69;5091999;28;19916;-44
2023/12/17 08:49:30;;;;;;;;;;;;;;;8.26;100.00;103589.53;5091965;28;19923;-45
2023/12/17 08:51:55;;;;;;;;;;;;;;;8.27;100.00;103593.97;5092046;28;19942;-44
2023/12/17 08:54:20;;;;;;;;;;;;;;;8.27;100.00;103594.81;5092160;28;19960;-43
2023/12/17 08:56:45;;;;;;;;;;;;;;;8.18;100.00;103595.41;5092007;28;19916;-45
2023/12/17 08:59:10;;;;;;;;;;;;;;;8.23;100.00;103604.00;5092352;28;19916;-44
2023/12/17 09:01:36;;;;;;;;;;;;;;;8.27;100.00;103602.00;5092912;28;19916;-43
2023/12/17 09:04:01;;;;;;;;;;;;;;;8.27;100.00;103597.50;5092059;28;19923;-44
2023/12/17 09:06:26;;;;;;;;;;;;;;;8.25;100.00;103594.06;5091994;28;19984;-43
2023/12/17 09:08:52;;;;;;;;;;;;;;;8.28;100.00;103596.53;5095432;28;20015;-43
2023/12/17 09:11:17;;;;;;;;;;;;;;;8.27;100.00;103594.81;5094168;28;20081;-43
2023/12/17 09:13:42;;;;;;;;;;;;;;;8.22;100.00;103588.88;5095376;28;19916;-44
2023/12/17 09:16:07;;;;;;;;;;;;;;;8.21;100.00;103597.03;5095592;28;19916;-43
2023/12/17 09:18:32;;;;;;;;;;;;;;;8.25;100.00;103607.47;5096028;28;19916;-43
2023/12/17 09:20:58;;;;;;;;;;;;;;;8.22;100.00;103605.00;5095495;28;20370;-43
2023/12/17 09:23:23;;;;;;;;;;;;;;;8.22;100.00;103604.13;5095125;28;20381;-43
2023/12/17 09:25:48;;;;;;;;;;;;;;;8.19;100.00;103604.31;5095179;28;20329;-43
2023/12/17 09:28:14;;;;;;;;;;;;;;;8.13;100.00;103605.56;5095073;28;19923;-44
2023/12/17 09:30:39;;;;;;;;;;;;;;;8.16;100.00;103593.78;5095203;28;19916;-43
2023/12/17 09:33:04;;;;;;;;;;;;;;;8.12;100.00;103593.97;5094821;28;19924;-44
2023/12/17 09:35:29;;;;;;;;;;;;;;;8.20;100.00;103600.69;5095081;28;19916;-43
2023/12/17 09:37:54;;;;;;;;;;;;;;;8.21;100.00;103592.50;5095051;28;19920;-44
2023/12/17 09:40:20;;;;;;;;;;;;;;;8.15;100.00;103598.28;5095404;28;19916;-43
2023/12/17 09:42:45;;;;;;;;;;;;;;;8.16;100.00;103594.63;5094885;28;19945;-42
2023/12/17 09:45:14;;;;;;;;;;;;;;;8.15;100.00;103603.66;5131400;27;19977;-42
2023/12/17 09:47:40;;;;;;;;;;;;;;;8.20;100.00;103619.47;5098821;28;19923;-43
2023/12/17 09:50:06;;;;;;;;;;;;;;;8.13;100.00;103602.88;5096913;28;20329;-46
2023/12/17 09:52:31;;;;;;;;;;;;;;;8.10;100.00;103600.41;5094969;28;20023;-44
2023/12/17 09:54:56;;;;;;;;;;;;;;;8.04;100.00;103590.06;5127485;27;19969;-43
2023/12/17 09:57:21;;;;;;;;;;;;;;;8.04;100.00;103590.94;5094492;28;19927;-42
2023/12/17 09:59:47;;;;;;;;;;;;;;;8.06;100.00;103589.00;5093531;28;19923;-43
2023/12/17 10:02:15;;;;;;;;;;;;;;;8.07;100.00;103590.72;5094389;28;20033;-42
2023/12/17 10:04:40;;;;;;;;;;;;;;;8.07;100.00;103601.44;5094703;28;19962;-44
2023/12/17 10:07:06;;;;;;;;;;;;;;;8.02;100.00;103587.47;5094556;28;19920;-44
2023/12/17 10:09:32;;;;;;;;;;;;;;;8.04;100.00;103574.84;5094230;28;19920;-43
2023/12/17 10:11:57;;;;;;;;;;;;;;;8.08;100.00;103581.75;5127124;27;20365;-43
2023/12/17 10:14:23;;;;;;;;;;;;;;;8.03;100.00;103575.81;5094185;28;19916;-44
2023/12/17 10:16:49;;;;;;;;;;;;;;;8.06;100.00;103572.91;5094417;28;19916;-44
2023/12/17 10:19:14;;;;;;;;;;;;;;;8.05;100.00;103571.19;5092566;28;20270;-43
2023/12/17 10:21:39;;;;;;;;;;;;;;;8.05;100.00;103560.44;5093975;28;19920;-42
2023/12/17 10:24:05;;;;;;;;;;;;;;;8.06;100.00;103569.38;5094237;28;19960;-43
2023/12/17 10:26:46;;;;;;;;;;;;;;;8.12;100.00;103567.16;5093824;28;19920;-42
2023/12/17 10:29:18;;;;;;;;;;;;;;;8.18;100.00;103559.66;5093792;28;19951;-43
2023/12/17 10:31:43;;;;;;;;;;;;;;;8.15;100.00;103555.34;5093822;28;19942;-43
2023/12/17 10:34:18;;;;;;;;;;;;;;;8.16;100.00;103558.91;5093732;28;19916;-43
2023/12/17 10:36:43;;;;;;;;;;;;;;;8.21;100.00;103536.16;5125653;27;19924;-43
2023/12/17 10:39:09;;;;;;;;;;;;;;;8.23;100.00;103530.72;5126531;27;20370;-43
2023/12/17 10:41:34;;;;;;;;;;;;;;;8.28;100.00;103536.66;5126532;27;19920;-44
2023/12/17 10:43:59;;;;;;;;;;;;;;;8.30;100.00;103530.22;5093645;28;19978;-44
2023/12/17 10:46:25;;;;;;;;;;;;;;;8.27;100.00;103524.19;5093120;28;19916;-43
2023/12/17 10:48:50;;;;;;;;;;;;;;;8.28;100.00;103518.72;5125518;27;19923;-43
2023/12/17 10:51:15;;;;;;;;;;;;;;;8.38;100.00;103510.94;5126299;27;20014;-43
2023/12/17 10:53:40;;;;;;;;;;;;;;;8.49;100.00;103510.25;5126234;27;20015;-43
2023/12/17 10:56:05;;;;;;;;;;;;;;;8.50;100.00;103512.81;5093473;28;19926;-44
2023/12/17 10:58:31;;;;;;;;;;;;;;;8.54;100.00;103506.28;5126290;27;20011;-44
2023/12/17 11:00:56;;;;;;;;;;;;;;;8.35;100.00;103497.72;5093376;28;19916;-43
2023/12/17 11:03:23;;;;;;;;;;;;;;;8.42;100.00;103496.34;5093199;28;19916;-42
2023/12/17 11:05:55;;;;;;;;;;;;;;;8.64;100.00;103503.00;5125551;27;19916;-42
2023/12/17 11:08:25;;;;;;;;;;;;;;;8.73;100.00;103481.72;5093524;28;19928;-44
2023/12/17 11:10:50;;;;;;;;;;;;;;;8.90;100.00;103483.25;5092784;28;19923;-42
2023/12/17 11:13:15;;;;;;;;;;;;;;;9.20;100.00;103491.00;5093096;28;19923;-43
2023/12/17 11:15:40;;;;;;;;;;;;;;;9.53;100.00;103472.56;5092894;28;19923;-43
2023/12/17 11:18:07;;;;;;;;;;;;;;;9.50;100.00;103464.72;5093195;28;19920;-42
2023/12/17 11:20:34;;;;;;;;;;;;;;;9.53;100.00;103459.13;5093165;28;20362;-44
2023/12/17 11:22:59;;;;;;;;;;;;;;;9.14;100.00;103461.88;5093232;28;19916;-43
2023/12/17 11:25:24;;;;;;;;;;;;;;;9.07;100.00;103462.41;5092980;28;19916;-44
2023/12/17 11:27:50;;;;;;;;;;;;;;;9.07;100.00;103451.69;5125815;27;20278;-43
2023/12/17 11:30:28;;;;;;;;;;;;;;;9.23;100.00;103447.78;5125068;27;20277;-44
2023/12/17 11:32:53;;;;;;;;;;;;;;;9.49;100.00;103447.75;5092599;28;19916;-45
2023/12/17 11:35:18;;;;;;;;;;;;;;;9.55;100.00;103441.06;5092560;28;19994;-43
2023/12/17 11:37:43;;;;;;;;;;;;;;;9.48;100.00;103435.28;5124852;27;20004;-43
2023/12/17 11:40:09;;;;;;;;;;;;;;;9.68;100.00;103428.44;5092560;28;20002;-43
2023/12/17 11:42:40;;;;;;;;;;;;;;;9.71;100.00;103430.03;5125561;27;19959;-44
2023/12/17 11:45:05;;;;;;;;;;;;;;;9.70;100.00;103423.81;5092625;28;20282;-43
2023/12/17 11:47:31;;;;;;;;;;;;;;;9.77;100.00;103414.34;5092603;28;19976;-43
2023/12/17 11:49:57;;;;;;;;;;;;;;;9.52;100.00;103427.84;5092405;28;19916;-43
2023/12/17 11:52:22;;;;;;;;;;;;;;;9.73;100.00;103418.19;5092417;28;19923;-45
2023/12/17 11:54:51;;;;;;;;;;;;;;;9.66;100.00;103411.56;5091775;28;19916;-44
2023/12/17 11:57:18;;;;;;;;;;;;;;;9.68;100.00;103406.94;5125155;27;20286;-43
2023/12/17 11:59:43;;;;;;;;;;;;;;;9.78;100.00;103394.53;5125706;27;19948;-45
2023/12/17 12:02:08;;;;;;;;;;;;;;;9.60;100.00;103398.56;5092154;28;20447;-44
2023/12/17 12:04:40;;;;;;;;;;;;;;;9.50;100.00;103401.06;5092910;28;20311;-42
2023/12/17 12:07:05;;;;;;;;;;;;;;;9.68;100.00;103391.66;5092925;28;19916;-42
2023/12/17 12:09:31;;;;;;;;;;;;;;;9.79;100.00;103379.22;5092818;28;20415;-43
2023/12/17 12:11:56;;;;;;;;;;;;;;;9.80;100.00;103389.03;5092976;28;20448;-44
2023/12/17 12:14:21;;;;;;;;;;;;;;;9.97;100.00;103382.38;5095031;28;20369;-43
2023/12/17 12:16:46;;;;;;;;;;;;;;;10.13;100.00;103385.63;5094541;28;20311;-43
2023/12/17 12:19:12;;;;;;;;;;;;;;;10.20;100.00;103386.03;5093299;28;20385;-43
2023/12/17 12:21:37;;;;;;;;;;;;;;;10.23;100.00;103391.16;5092335;28;20362;-43
2023/12/17 12:24:08;;;;;;;;;;;;;;;10.16;100.00;103371.94;5125526;28;19916;-43
2023/12/17 12:26:34;;;;;;;;;;;;;;;10.12;100.00;103370.47;5092598;28;19916;-43